sensor_id;sensor_type;location;lat;lon;timestamp;P1;durP1;ratioP1;P2;durP2;ratioP2
13445;SDS011;6795;51.232;3.764;2023-04-24T00:01:23;16.60;;;9.57;;
13445;SDS011;6795;51.232;3.764;2023-04-24T00:03:52;18.42;;;11.48;;
13445;SDS011;6795;51.232;3.764;2023-04-24T00:06:21;11.80;;;7.85;;
13445;SDS011;6795;51.232;3.764;2023-04-24T00:08:51;8.27;;;6.00;;
13445;SDS011;6795;51.232;3.764;2023-04-24T00:11:20;6.28;;;5.57;;
13445;SDS011;6795;51.232;3.764;2023-04-24T00:13:49;9.68;;;4.50;;
13445;SDS011;6795;51.232;3.764;2023-04-24T00:16:17;8.68;;;4.63;;
13445;SDS011;6795;51.232;3.764;2023-04-24T00:18:46;8.93;;;5.05;;
13445;SDS011;6795;51.232;3.764;2023-04-24T00:21:15;9.77;;;5.72;;
13445;SDS011;6795;51.232;3.764;2023-04-24T00:23:44;7.07;;;5.00;;
13445;SDS011;6795;51.232;3.764;2023-04-24T00:26:14;6.32;;;5.05;;
13445;SDS011;6795;51.232;3.764;2023-04-24T00:28:42;14.13;;;4.18;;
13445;SDS011;6795;51.232;3.764;2023-04-24T00:31:11;6.55;;;3.72;;
13445;SDS011;6795;51.232;3.764;2023-04-24T00:33:40;8.25;;;4.35;;
13445;SDS011;6795;51.232;3.764;2023-04-24T00:36:09;5.95;;;3.50;;
13445;SDS011;6795;51.232;3.764;2023-04-24T00:38:37;7.63;;;3.72;;
13445;SDS011;6795;51.232;3.764;2023-04-24T00:41:06;6.03;;;3.65;;
13445;SDS011;6795;51.232;3.764;2023-04-24T00:43:36;4.85;;;4.22;;
13445;SDS011;6795;51.232;3.764;2023-04-24T00:46:05;9.82;;;3.97;;
13445;SDS011;6795;51.232;3.764;2023-04-24T00:48:34;7.80;;;4.13;;
13445;SDS011;6795;51.232;3.764;2023-04-24T00:51:03;6.20;;;3.83;;
13445;SDS011;6795;51.232;3.764;2023-04-24T00:53:31;10.02;;;4.25;;
13445;SDS011;6795;51.232;3.764;2023-04-24T00:56:00;7.45;;;4.10;;
13445;SDS011;6795;51.232;3.764;2023-04-24T00:58:29;8.77;;;4.95;;
13445;SDS011;6795;51.232;3.764;2023-04-24T01:01:00;8.00;;;4.70;;
13445;SDS011;6795;51.232;3.764;2023-04-24T01:03:33;9.75;;;4.35;;
13445;SDS011;6795;51.232;3.764;2023-04-24T01:06:04;8.32;;;4.70;;
13445;SDS011;6795;51.232;3.764;2023-04-24T01:08:33;10.18;;;4.18;;
13445;SDS011;6795;51.232;3.764;2023-04-24T01:11:03;6.90;;;4.57;;
13445;SDS011;6795;51.232;3.764;2023-04-24T01:13:32;5.75;;;5.13;;
13445;SDS011;6795;51.232;3.764;2023-04-24T01:16:02;8.98;;;5.15;;
13445;SDS011;6795;51.232;3.764;2023-04-24T01:18:31;9.57;;;5.68;;
13445;SDS011;6795;51.232;3.764;2023-04-24T01:21:00;8.93;;;5.72;;
13445;SDS011;6795;51.232;3.764;2023-04-24T01:23:33;11.45;;;6.88;;
13445;SDS011;6795;51.232;3.764;2023-04-24T01:26:01;7.85;;;6.60;;
13445;SDS011;6795;51.232;3.764;2023-04-24T01:28:30;12.27;;;7.57;;
13445;SDS011;6795;51.232;3.764;2023-04-24T01:30:59;12.25;;;8.50;;
13445;SDS011;6795;51.232;3.764;2023-04-24T01:33:28;13.73;;;9.50;;
13445;SDS011;6795;51.232;3.764;2023-04-24T01:35:57;13.88;;;9.52;;
13445;SDS011;6795;51.232;3.764;2023-04-24T01:38:26;11.75;;;9.38;;
13445;SDS011;6795;51.232;3.764;2023-04-24T01:40:56;16.40;;;10.95;;
13445;SDS011;6795;51.232;3.764;2023-04-24T01:43:25;15.65;;;10.88;;
13445;SDS011;6795;51.232;3.764;2023-04-24T01:45:53;20.55;;;12.48;;
13445;SDS011;6795;51.232;3.764;2023-04-24T01:48:22;21.05;;;12.57;;
13445;SDS011;6795;51.232;3.764;2023-04-24T01:50:52;18.90;;;13.40;;
13445;SDS011;6795;51.232;3.764;2023-04-24T01:53:20;22.15;;;13.98;;
13445;SDS011;6795;51.232;3.764;2023-04-24T01:55:49;20.70;;;13.98;;
13445;SDS011;6795;51.232;3.764;2023-04-24T01:58:19;23.85;;;14.35;;
13445;SDS011;6795;51.232;3.764;2023-04-24T02:00:48;18.70;;;14.23;;
13445;SDS011;6795;51.232;3.764;2023-04-24T02:03:17;22.20;;;14.57;;
13445;SDS011;6795;51.232;3.764;2023-04-24T02:05:46;23.25;;;14.68;;
13445;SDS011;6795;51.232;3.764;2023-04-24T02:08:14;23.20;;;14.30;;
13445;SDS011;6795;51.232;3.764;2023-04-24T02:10:43;18.65;;;10.73;;
13445;SDS011;6795;51.232;3.764;2023-04-24T02:13:12;22.33;;;13.48;;
13445;SDS011;6795;51.232;3.764;2023-04-24T02:15:42;21.15;;;12.93;;
13445;SDS011;6795;51.232;3.764;2023-04-24T02:18:10;20.80;;;13.68;;
13445;SDS011;6795;51.232;3.764;2023-04-24T02:20:39;20.02;;;13.40;;
13445;SDS011;6795;51.232;3.764;2023-04-24T02:23:08;17.88;;;12.80;;
13445;SDS011;6795;51.232;3.764;2023-04-24T02:25:36;19.45;;;12.32;;
13445;SDS011;6795;51.232;3.764;2023-04-24T02:28:05;19.27;;;10.38;;
13445;SDS011;6795;51.232;3.764;2023-04-24T02:30:34;19.08;;;8.63;;
13445;SDS011;6795;51.232;3.764;2023-04-24T02:33:04;12.52;;;6.50;;
13445;SDS011;6795;51.232;3.764;2023-04-24T02:35:35;10.75;;;5.07;;
13445;SDS011;6795;51.232;3.764;2023-04-24T02:38:04;9.77;;;3.97;;
13445;SDS011;6795;51.232;3.764;2023-04-24T02:40:33;8.00;;;3.70;;
13445;SDS011;6795;51.232;3.764;2023-04-24T02:43:02;8.70;;;3.35;;
13445;SDS011;6795;51.232;3.764;2023-04-24T02:45:30;8.07;;;4.35;;
13445;SDS011;6795;51.232;3.764;2023-04-24T02:48:01;6.85;;;3.90;;
13445;SDS011;6795;51.232;3.764;2023-04-24T02:50:31;7.00;;;3.30;;
13445;SDS011;6795;51.232;3.764;2023-04-24T02:53:00;6.72;;;4.13;;
13445;SDS011;6795;51.232;3.764;2023-04-24T02:55:28;12.40;;;4.43;;
13445;SDS011;6795;51.232;3.764;2023-04-24T02:57:57;9.65;;;4.20;;
13445;SDS011;6795;51.232;3.764;2023-04-24T03:00:28;10.30;;;3.95;;
13445;SDS011;6795;51.232;3.764;2023-04-24T03:02:57;8.05;;;3.60;;
13445;SDS011;6795;51.232;3.764;2023-04-24T03:05:26;6.80;;;3.72;;
13445;SDS011;6795;51.232;3.764;2023-04-24T03:07:56;8.43;;;4.53;;
13445;SDS011;6795;51.232;3.764;2023-04-24T03:10:25;5.18;;;3.92;;
13445;SDS011;6795;51.232;3.764;2023-04-24T03:12:53;11.48;;;4.68;;
13445;SDS011;6795;51.232;3.764;2023-04-24T03:15:22;7.38;;;5.00;;
13445;SDS011;6795;51.232;3.764;2023-04-24T03:17:51;10.05;;;5.43;;
13445;SDS011;6795;51.232;3.764;2023-04-24T03:20:22;10.38;;;5.43;;
13445;SDS011;6795;51.232;3.764;2023-04-24T03:22:51;11.18;;;5.60;;
13445;SDS011;6795;51.232;3.764;2023-04-24T03:25:21;9.05;;;5.65;;
13445;SDS011;6795;51.232;3.764;2023-04-24T03:27:50;10.20;;;5.85;;
13445;SDS011;6795;51.232;3.764;2023-04-24T03:30:18;16.80;;;7.20;;
13445;SDS011;6795;51.232;3.764;2023-04-24T03:32:47;19.63;;;6.90;;
13445;SDS011;6795;51.232;3.764;2023-04-24T03:35:17;12.52;;;7.53;;
13445;SDS011;6795;51.232;3.764;2023-04-24T03:37:45;18.33;;;8.50;;
13445;SDS011;6795;51.232;3.764;2023-04-24T03:40:14;20.73;;;9.30;;
13445;SDS011;6795;51.232;3.764;2023-04-24T03:42:44;17.00;;;9.35;;
13445;SDS011;6795;51.232;3.764;2023-04-24T03:45:13;15.75;;;9.38;;
13445;SDS011;6795;51.232;3.764;2023-04-24T03:47:42;19.58;;;10.55;;
13445;SDS011;6795;51.232;3.764;2023-04-24T03:50:10;16.63;;;10.07;;
13445;SDS011;6795;51.232;3.764;2023-04-24T03:52:39;29.38;;;12.13;;
13445;SDS011;6795;51.232;3.764;2023-04-24T03:55:08;17.67;;;10.07;;
13445;SDS011;6795;51.232;3.764;2023-04-24T03:57:39;20.63;;;12.48;;
13445;SDS011;6795;51.232;3.764;2023-04-24T04:00:10;27.75;;;11.32;;
13445;SDS011;6795;51.232;3.764;2023-04-24T04:02:39;22.00;;;11.27;;
13445;SDS011;6795;51.232;3.764;2023-04-24T04:05:08;22.60;;;10.30;;
13445;SDS011;6795;51.232;3.764;2023-04-24T04:07:37;21.48;;;11.32;;
13445;SDS011;6795;51.232;3.764;2023-04-24T04:10:05;22.92;;;12.23;;
13445;SDS011;6795;51.232;3.764;2023-04-24T04:12:35;15.00;;;9.73;;
13445;SDS011;6795;51.232;3.764;2023-04-24T04:15:03;21.90;;;10.85;;
13445;SDS011;6795;51.232;3.764;2023-04-24T04:17:34;22.92;;;10.80;;
13445;SDS011;6795;51.232;3.764;2023-04-24T04:20:04;19.15;;;10.07;;
13445;SDS011;6795;51.232;3.764;2023-04-24T04:22:36;21.15;;;10.23;;
13445;SDS011;6795;51.232;3.764;2023-04-24T04:25:07;21.15;;;11.10;;
13445;SDS011;6795;51.232;3.764;2023-04-24T04:27:36;28.73;;;12.20;;
13445;SDS011;6795;51.232;3.764;2023-04-24T04:30:05;24.02;;;11.82;;
13445;SDS011;6795;51.232;3.764;2023-04-24T04:32:36;17.42;;;10.27;;
13445;SDS011;6795;51.232;3.764;2023-04-24T04:35:05;21.42;;;11.38;;
13445;SDS011;6795;51.232;3.764;2023-04-24T04:37:33;21.70;;;12.13;;
13445;SDS011;6795;51.232;3.764;2023-04-24T04:40:02;25.10;;;11.30;;
13445;SDS011;6795;51.232;3.764;2023-04-24T04:42:33;21.70;;;12.25;;
13445;SDS011;6795;51.232;3.764;2023-04-24T04:45:02;21.63;;;12.80;;
13445;SDS011;6795;51.232;3.764;2023-04-24T04:47:30;22.58;;;12.20;;
13445;SDS011;6795;51.232;3.764;2023-04-24T04:50:00;22.30;;;12.63;;
13445;SDS011;6795;51.232;3.764;2023-04-24T04:52:29;25.20;;;13.00;;
13445;SDS011;6795;51.232;3.764;2023-04-24T04:54:58;27.05;;;13.38;;
13445;SDS011;6795;51.232;3.764;2023-04-24T04:57:27;26.98;;;13.45;;
13445;SDS011;6795;51.232;3.764;2023-04-24T04:59:55;25.83;;;13.55;;
13445;SDS011;6795;51.232;3.764;2023-04-24T05:02:23;23.98;;;12.32;;
13445;SDS011;6795;51.232;3.764;2023-04-24T05:04:52;25.55;;;13.73;;
13445;SDS011;6795;51.232;3.764;2023-04-24T05:07:22;24.13;;;13.60;;
13445;SDS011;6795;51.232;3.764;2023-04-24T05:09:51;23.17;;;14.73;;
13445;SDS011;6795;51.232;3.764;2023-04-24T05:12:19;28.98;;;15.27;;
13445;SDS011;6795;51.232;3.764;2023-04-24T05:14:50;32.38;;;16.35;;
13445;SDS011;6795;51.232;3.764;2023-04-24T05:17:18;28.30;;;16.42;;
13445;SDS011;6795;51.232;3.764;2023-04-24T05:19:47;34.33;;;16.35;;
13445;SDS011;6795;51.232;3.764;2023-04-24T05:22:15;29.23;;;16.13;;
13445;SDS011;6795;51.232;3.764;2023-04-24T05:24:46;32.22;;;16.10;;
13445;SDS011;6795;51.232;3.764;2023-04-24T05:27:15;29.88;;;15.00;;
13445;SDS011;6795;51.232;3.764;2023-04-24T05:29:43;30.45;;;14.85;;
13445;SDS011;6795;51.232;3.764;2023-04-24T05:32:12;29.63;;;14.02;;
13445;SDS011;6795;51.232;3.764;2023-04-24T05:34:40;32.47;;;15.80;;
13445;SDS011;6795;51.232;3.764;2023-04-24T05:37:11;30.08;;;14.85;;
13445;SDS011;6795;51.232;3.764;2023-04-24T05:39:39;23.10;;;14.32;;
13445;SDS011;6795;51.232;3.764;2023-04-24T05:42:10;32.10;;;15.27;;
13445;SDS011;6795;51.232;3.764;2023-04-24T05:44:38;24.13;;;14.73;;
13445;SDS011;6795;51.232;3.764;2023-04-24T05:47:06;34.70;;;15.40;;
13445;SDS011;6795;51.232;3.764;2023-04-24T05:49:35;23.80;;;13.20;;
13445;SDS011;6795;51.232;3.764;2023-04-24T05:52:03;29.33;;;14.95;;
13445;SDS011;6795;51.232;3.764;2023-04-24T05:54:32;22.98;;;13.45;;
13445;SDS011;6795;51.232;3.764;2023-04-24T05:57:03;20.83;;;11.50;;
13445;SDS011;6795;51.232;3.764;2023-04-24T05:59:36;17.80;;;8.90;;
13445;SDS011;6795;51.232;3.764;2023-04-24T06:02:05;15.77;;;8.63;;
13445;SDS011;6795;51.232;3.764;2023-04-24T06:04:34;20.20;;;8.48;;
13445;SDS011;6795;51.232;3.764;2023-04-24T06:07:03;25.67;;;10.10;;
13445;SDS011;6795;51.232;3.764;2023-04-24T06:09:32;22.58;;;8.50;;
13445;SDS011;6795;51.232;3.764;2023-04-24T06:12:01;19.83;;;8.85;;
13445;SDS011;6795;51.232;3.764;2023-04-24T06:14:30;21.25;;;7.00;;
13445;SDS011;6795;51.232;3.764;2023-04-24T06:16:59;16.45;;;6.57;;
13445;SDS011;6795;51.232;3.764;2023-04-24T06:19:28;14.45;;;6.13;;
13445;SDS011;6795;51.232;3.764;2023-04-24T06:21:56;15.43;;;6.45;;
13445;SDS011;6795;51.232;3.764;2023-04-24T06:24:26;17.60;;;7.93;;
13445;SDS011;6795;51.232;3.764;2023-04-24T06:26:55;17.80;;;6.20;;
13445;SDS011;6795;51.232;3.764;2023-04-24T06:29:25;14.77;;;5.57;;
13445;SDS011;6795;51.232;3.764;2023-04-24T06:31:54;10.10;;;3.63;;
13445;SDS011;6795;51.232;3.764;2023-04-24T06:34:23;10.48;;;3.00;;
13445;SDS011;6795;51.232;3.764;2023-04-24T06:36:52;14.27;;;3.70;;
13445;SDS011;6795;51.232;3.764;2023-04-24T06:39:21;16.17;;;3.78;;
13445;SDS011;6795;51.232;3.764;2023-04-24T06:41:50;10.60;;;2.63;;
13445;SDS011;6795;51.232;3.764;2023-04-24T06:44:18;14.45;;;3.58;;
13445;SDS011;6795;51.232;3.764;2023-04-24T06:46:47;14.98;;;3.47;;
13445;SDS011;6795;51.232;3.764;2023-04-24T06:49:15;12.48;;;3.90;;
13445;SDS011;6795;51.232;3.764;2023-04-24T06:51:45;16.77;;;4.28;;
13445;SDS011;6795;51.232;3.764;2023-04-24T06:54:14;15.77;;;4.47;;
13445;SDS011;6795;51.232;3.764;2023-04-24T06:56:42;22.60;;;5.10;;
13445;SDS011;6795;51.232;3.764;2023-04-24T06:59:13;22.13;;;5.10;;
13445;SDS011;6795;51.232;3.764;2023-04-24T07:01:41;15.18;;;5.65;;
13445;SDS011;6795;51.232;3.764;2023-04-24T07:04:10;17.92;;;6.40;;
13445;SDS011;6795;51.232;3.764;2023-04-24T07:06:40;12.35;;;5.80;;
13445;SDS011;6795;51.232;3.764;2023-04-24T07:09:10;14.98;;;5.05;;
13445;SDS011;6795;51.232;3.764;2023-04-24T07:11:39;18.05;;;6.45;;
13445;SDS011;6795;51.232;3.764;2023-04-24T07:14:08;16.42;;;5.47;;
13445;SDS011;6795;51.232;3.764;2023-04-24T07:16:37;14.35;;;5.40;;
13445;SDS011;6795;51.232;3.764;2023-04-24T07:19:05;17.98;;;4.25;;
13445;SDS011;6795;51.232;3.764;2023-04-24T07:21:34;14.63;;;4.88;;
13445;SDS011;6795;51.232;3.764;2023-04-24T07:24:02;16.20;;;4.00;;
13445;SDS011;6795;51.232;3.764;2023-04-24T07:26:32;23.52;;;5.43;;
13445;SDS011;6795;51.232;3.764;2023-04-24T07:29:00;17.77;;;3.83;;
13445;SDS011;6795;51.232;3.764;2023-04-24T07:31:29;21.73;;;5.07;;
13445;SDS011;6795;51.232;3.764;2023-04-24T07:33:58;17.95;;;3.70;;
13445;SDS011;6795;51.232;3.764;2023-04-24T07:36:26;16.73;;;3.42;;
13445;SDS011;6795;51.232;3.764;2023-04-24T07:38:55;14.65;;;3.53;;
13445;SDS011;6795;51.232;3.764;2023-04-24T07:41:23;13.60;;;3.20;;
13445;SDS011;6795;51.232;3.764;2023-04-24T07:43:55;11.57;;;2.60;;
13445;SDS011;6795;51.232;3.764;2023-04-24T07:46:24;13.85;;;2.20;;
13445;SDS011;6795;51.232;3.764;2023-04-24T07:48:54;8.27;;;2.17;;
13445;SDS011;6795;51.232;3.764;2023-04-24T07:51:38;14.63;;;2.08;;
13445;SDS011;6795;51.232;3.764;2023-04-24T07:54:08;13.02;;;2.58;;
13445;SDS011;6795;51.232;3.764;2023-04-24T07:56:36;7.57;;;2.00;;
13445;SDS011;6795;51.232;3.764;2023-04-24T07:59:07;10.02;;;2.15;;
13445;SDS011;6795;51.232;3.764;2023-04-24T08:01:36;13.20;;;3.13;;
13445;SDS011;6795;51.232;3.764;2023-04-24T08:04:04;8.00;;;2.58;;
13445;SDS011;6795;51.232;3.764;2023-04-24T08:06:33;15.15;;;3.65;;
13445;SDS011;6795;51.232;3.764;2023-04-24T08:09:02;11.90;;;2.97;;
13445;SDS011;6795;51.232;3.764;2023-04-24T08:11:30;12.00;;;3.83;;
13445;SDS011;6795;51.232;3.764;2023-04-24T08:13:59;11.30;;;3.08;;
13445;SDS011;6795;51.232;3.764;2023-04-24T08:16:29;14.32;;;3.17;;
13445;SDS011;6795;51.232;3.764;2023-04-24T08:18:57;15.00;;;2.95;;
13445;SDS011;6795;51.232;3.764;2023-04-24T08:21:26;11.93;;;2.90;;
13445;SDS011;6795;51.232;3.764;2023-04-24T08:23:54;13.40;;;2.58;;
13445;SDS011;6795;51.232;3.764;2023-04-24T08:26:22;8.93;;;1.75;;
13445;SDS011;6795;51.232;3.764;2023-04-24T08:28:51;12.07;;;1.95;;
13445;SDS011;6795;51.232;3.764;2023-04-24T08:31:19;10.60;;;2.95;;
13445;SDS011;6795;51.232;3.764;2023-04-24T08:33:50;4.55;;;1.27;;
13445;SDS011;6795;51.232;3.764;2023-04-24T08:36:19;5.93;;;1.27;;
13445;SDS011;6795;51.232;3.764;2023-04-24T08:38:51;6.15;;;1.30;;
13445;SDS011;6795;51.232;3.764;2023-04-24T08:41:20;5.20;;;1.25;;
13445;SDS011;6795;51.232;3.764;2023-04-24T08:43:52;4.97;;;1.13;;
13445;SDS011;6795;51.232;3.764;2023-04-24T08:46:21;8.85;;;1.25;;
13445;SDS011;6795;51.232;3.764;2023-04-24T08:48:53;6.88;;;1.38;;
13445;SDS011;6795;51.232;3.764;2023-04-24T08:51:22;6.57;;;0.75;;
13445;SDS011;6795;51.232;3.764;2023-04-24T08:53:52;11.40;;;1.00;;
13445;SDS011;6795;51.232;3.764;2023-04-24T08:56:22;5.53;;;1.10;;
13445;SDS011;6795;51.232;3.764;2023-04-24T08:58:51;6.53;;;1.15;;
13445;SDS011;6795;51.232;3.764;2023-04-24T09:01:20;6.22;;;0.98;;
13445;SDS011;6795;51.232;3.764;2023-04-24T09:03:48;10.30;;;1.48;;
13445;SDS011;6795;51.232;3.764;2023-04-24T09:06:19;3.13;;;0.90;;
13445;SDS011;6795;51.232;3.764;2023-04-24T09:08:49;8.60;;;1.35;;
13445;SDS011;6795;51.232;3.764;2023-04-24T09:11:19;6.53;;;1.00;;
13445;SDS011;6795;51.232;3.764;2023-04-24T09:13:49;5.78;;;1.25;;
13445;SDS011;6795;51.232;3.764;2023-04-24T09:16:19;7.85;;;1.15;;
13445;SDS011;6795;51.232;3.764;2023-04-24T09:18:49;6.80;;;1.00;;
13445;SDS011;6795;51.232;3.764;2023-04-24T09:21:19;6.97;;;1.08;;
13445;SDS011;6795;51.232;3.764;2023-04-24T09:23:57;3.40;;;0.70;;
13445;SDS011;6795;51.232;3.764;2023-04-24T09:26:28;3.33;;;1.13;;
13445;SDS011;6795;51.232;3.764;2023-04-24T09:28:59;3.45;;;1.10;;
13445;SDS011;6795;51.232;3.764;2023-04-24T09:31:28;4.53;;;0.90;;
13445;SDS011;6795;51.232;3.764;2023-04-24T09:33:58;3.60;;;1.17;;
13445;SDS011;6795;51.232;3.764;2023-04-24T09:36:31;7.07;;;1.75;;
13445;SDS011;6795;51.232;3.764;2023-04-24T09:39:01;6.43;;;1.45;;
13445;SDS011;6795;51.232;3.764;2023-04-24T09:41:31;4.95;;;1.55;;
13445;SDS011;6795;51.232;3.764;2023-04-24T09:44:10;4.72;;;1.25;;
13445;SDS011;6795;51.232;3.764;2023-04-24T09:46:40;3.90;;;1.00;;
13445;SDS011;6795;51.232;3.764;2023-04-24T09:49:12;5.32;;;1.15;;
13445;SDS011;6795;51.232;3.764;2023-04-24T09:51:43;6.30;;;1.20;;
13445;SDS011;6795;51.232;3.764;2023-04-24T09:54:13;5.65;;;1.70;;
13445;SDS011;6795;51.232;3.764;2023-04-24T09:56:46;5.93;;;1.13;;
13445;SDS011;6795;51.232;3.764;2023-04-24T09:59:16;4.57;;;1.20;;
13445;SDS011;6795;51.232;3.764;2023-04-24T10:01:45;5.03;;;1.38;;
13445;SDS011;6795;51.232;3.764;2023-04-24T10:04:15;6.70;;;1.33;;
13445;SDS011;6795;51.232;3.764;2023-04-24T10:06:47;2.40;;;0.65;;
13445;SDS011;6795;51.232;3.764;2023-04-24T10:09:16;5.13;;;0.88;;
13445;SDS011;6795;51.232;3.764;2023-04-24T10:11:46;5.15;;;1.00;;
13445;SDS011;6795;51.232;3.764;2023-04-24T10:14:17;3.58;;;0.77;;
13445;SDS011;6795;51.232;3.764;2023-04-24T10:16:47;3.50;;;0.55;;
13445;SDS011;6795;51.232;3.764;2023-04-24T10:19:16;5.65;;;0.57;;
13445;SDS011;6795;51.232;3.764;2023-04-24T10:21:48;2.33;;;0.47;;
13445;SDS011;6795;51.232;3.764;2023-04-24T10:24:17;8.93;;;0.73;;
13445;SDS011;6795;51.232;3.764;2023-04-24T10:26:46;1.92;;;0.35;;
13445;SDS011;6795;51.232;3.764;2023-04-24T10:29:16;9.25;;;2.28;;
13445;SDS011;6795;51.232;3.764;2023-04-24T10:31:46;1.15;;;0.38;;
13445;SDS011;6795;51.232;3.764;2023-04-24T10:34:15;1.65;;;0.40;;
13445;SDS011;6795;51.232;3.764;2023-04-24T10:36:45;1.20;;;0.30;;
13445;SDS011;6795;51.232;3.764;2023-04-24T10:39:21;1.65;;;0.30;;
13445;SDS011;6795;51.232;3.764;2023-04-24T10:41:53;1.35;;;0.30;;
13445;SDS011;6795;51.232;3.764;2023-04-24T10:44:24;1.52;;;0.45;;
13445;SDS011;6795;51.232;3.764;2023-04-24T10:46:53;2.15;;;0.30;;
13445;SDS011;6795;51.232;3.764;2023-04-24T10:49:28;1.75;;;0.40;;
13445;SDS011;6795;51.232;3.764;2023-04-24T10:52:01;1.55;;;0.40;;
13445;SDS011;6795;51.232;3.764;2023-04-24T10:54:34;2.17;;;0.20;;
13445;SDS011;6795;51.232;3.764;2023-04-24T11:00:15;1.90;;;0.30;;
13445;SDS011;6795;51.232;3.764;2023-04-24T11:02:47;2.10;;;0.30;;
13445;SDS011;6795;51.232;3.764;2023-04-24T11:05:19;0.88;;;0.30;;
13445;SDS011;6795;51.232;3.764;2023-04-24T11:10:40;6.75;;;0.40;;
13445;SDS011;6795;51.232;3.764;2023-04-24T11:13:14;3.47;;;0.30;;
13445;SDS011;6795;51.232;3.764;2023-04-24T11:15:43;1.08;;;0.30;;
13445;SDS011;6795;51.232;3.764;2023-04-24T11:18:13;1.92;;;0.30;;
13445;SDS011;6795;51.232;3.764;2023-04-24T11:20:43;3.53;;;0.28;;
13445;SDS011;6795;51.232;3.764;2023-04-24T11:23:13;2.08;;;0.30;;
13445;SDS011;6795;51.232;3.764;2023-04-24T11:25:42;1.95;;;0.30;;
13445;SDS011;6795;51.232;3.764;2023-04-24T11:28:14;0.50;;;0.30;;
13445;SDS011;6795;51.232;3.764;2023-04-24T11:30:43;1.75;;;0.40;;
13445;SDS011;6795;51.232;3.764;2023-04-24T11:33:12;3.35;;;0.40;;
13445;SDS011;6795;51.232;3.764;2023-04-24T11:35:48;1.17;;;0.40;;
13445;SDS011;6795;51.232;3.764;2023-04-24T11:38:20;3.45;;;0.40;;
13445;SDS011;6795;51.232;3.764;2023-04-24T11:40:51;2.80;;;0.35;;
13445;SDS011;6795;51.232;3.764;2023-04-24T11:43:20;0.73;;;0.38;;
13445;SDS011;6795;51.232;3.764;2023-04-24T11:45:50;0.68;;;0.60;;
13445;SDS011;6795;51.232;3.764;2023-04-24T11:48:19;3.00;;;0.50;;
13445;SDS011;6795;51.232;3.764;2023-04-24T11:50:50;3.38;;;0.57;;
13445;SDS011;6795;51.232;3.764;2023-04-24T11:53:19;3.17;;;0.50;;
13445;SDS011;6795;51.232;3.764;2023-04-24T11:55:49;1.23;;;0.40;;
13445;SDS011;6795;51.232;3.764;2023-04-24T11:58:20;3.10;;;0.60;;
13445;SDS011;6795;51.232;3.764;2023-04-24T12:00:55;2.53;;;0.60;;
13445;SDS011;6795;51.232;3.764;2023-04-24T12:03:25;4.57;;;0.40;;
13445;SDS011;6795;51.232;3.764;2023-04-24T12:06:04;2.78;;;0.68;;
13445;SDS011;6795;51.232;3.764;2023-04-24T12:08:35;5.43;;;0.55;;
13445;SDS011;6795;51.232;3.764;2023-04-24T12:11:05;3.88;;;0.82;;
13445;SDS011;6795;51.232;3.764;2023-04-24T12:13:35;3.25;;;0.85;;
13445;SDS011;6795;51.232;3.764;2023-04-24T12:16:03;2.03;;;0.52;;
13445;SDS011;6795;51.232;3.764;2023-04-24T12:18:32;3.58;;;0.55;;
13445;SDS011;6795;51.232;3.764;2023-04-24T12:21:17;2.33;;;0.40;;
13445;SDS011;6795;51.232;3.764;2023-04-24T12:23:50;1.55;;;0.40;;
13445;SDS011;6795;51.232;3.764;2023-04-24T12:26:18;2.50;;;0.50;;
13445;SDS011;6795;51.232;3.764;2023-04-24T12:28:51;4.20;;;0.40;;
13445;SDS011;6795;51.232;3.764;2023-04-24T12:31:20;2.25;;;0.52;;
13445;SDS011;6795;51.232;3.764;2023-04-24T12:33:50;4.70;;;0.65;;
13445;SDS011;6795;51.232;3.764;2023-04-24T12:36:18;3.35;;;0.65;;
13445;SDS011;6795;51.232;3.764;2023-04-24T12:38:53;1.20;;;0.30;;
13445;SDS011;6795;51.232;3.764;2023-04-24T12:41:22;0.85;;;0.40;;
13445;SDS011;6795;51.232;3.764;2023-04-24T12:43:50;4.50;;;0.68;;
13445;SDS011;6795;51.232;3.764;2023-04-24T12:46:20;2.70;;;0.47;;
13445;SDS011;6795;51.232;3.764;2023-04-24T12:48:48;0.60;;;0.20;;
13445;SDS011;6795;51.232;3.764;2023-04-24T12:51:16;2.33;;;0.20;;
13445;SDS011;6795;51.232;3.764;2023-04-24T12:53:45;0.85;;;0.22;;
13445;SDS011;6795;51.232;3.764;2023-04-24T12:56:15;0.95;;;0.30;;
13445;SDS011;6795;51.232;3.764;2023-04-24T12:58:43;0.30;;;0.20;;
13445;SDS011;6795;51.232;3.764;2023-04-24T13:01:12;1.15;;;0.32;;
13445;SDS011;6795;51.232;3.764;2023-04-24T13:03:40;4.32;;;0.32;;
13445;SDS011;6795;51.232;3.764;2023-04-24T13:06:09;3.00;;;0.40;;
13445;SDS011;6795;51.232;3.764;2023-04-24T13:08:38;1.05;;;0.30;;
13445;SDS011;6795;51.232;3.764;2023-04-24T13:11:06;2.88;;;0.38;;
13445;SDS011;6795;51.232;3.764;2023-04-24T13:13:36;1.48;;;0.30;;
13445;SDS011;6795;51.232;3.764;2023-04-24T13:16:05;1.60;;;0.50;;
13445;SDS011;6795;51.232;3.764;2023-04-24T13:18:33;1.67;;;0.30;;
13445;SDS011;6795;51.232;3.764;2023-04-24T13:21:02;1.58;;;0.43;;
13445;SDS011;6795;51.232;3.764;2023-04-24T13:23:30;6.32;;;0.65;;
13445;SDS011;6795;51.232;3.764;2023-04-24T13:25:59;1.90;;;0.50;;
13445;SDS011;6795;51.232;3.764;2023-04-24T13:28:27;1.40;;;0.40;;
13445;SDS011;6795;51.232;3.764;2023-04-24T13:30:57;3.08;;;0.40;;
13445;SDS011;6795;51.232;3.764;2023-04-24T13:33:26;2.95;;;0.52;;
13445;SDS011;6795;51.232;3.764;2023-04-24T13:35:54;2.33;;;0.43;;
13445;SDS011;6795;51.232;3.764;2023-04-24T13:38:23;2.20;;;0.40;;
13445;SDS011;6795;51.232;3.764;2023-04-24T13:40:51;2.15;;;0.40;;
13445;SDS011;6795;51.232;3.764;2023-04-24T13:43:19;1.90;;;0.50;;
13445;SDS011;6795;51.232;3.764;2023-04-24T13:45:48;1.10;;;0.35;;
13445;SDS011;6795;51.232;3.764;2023-04-24T13:48:18;1.40;;;0.55;;
13445;SDS011;6795;51.232;3.764;2023-04-24T13:50:47;1.80;;;0.50;;
13445;SDS011;6795;51.232;3.764;2023-04-24T13:53:16;1.33;;;0.40;;
13445;SDS011;6795;51.232;3.764;2023-04-24T13:55:47;3.55;;;0.60;;
13445;SDS011;6795;51.232;3.764;2023-04-24T13:58:17;3.22;;;0.60;;
13445;SDS011;6795;51.232;3.764;2023-04-24T14:00:45;2.03;;;0.40;;
13445;SDS011;6795;51.232;3.764;2023-04-24T14:03:14;0.70;;;0.38;;
13445;SDS011;6795;51.232;3.764;2023-04-24T14:05:44;2.65;;;0.40;;
13445;SDS011;6795;51.232;3.764;2023-04-24T14:08:12;0.40;;;0.40;;
13445;SDS011;6795;51.232;3.764;2023-04-24T14:10:42;1.55;;;0.30;;
13445;SDS011;6795;51.232;3.764;2023-04-24T14:13:10;2.25;;;0.40;;
13445;SDS011;6795;51.232;3.764;2023-04-24T14:15:39;0.88;;;0.52;;
13445;SDS011;6795;51.232;3.764;2023-04-24T14:18:07;1.92;;;0.55;;
13445;SDS011;6795;51.232;3.764;2023-04-24T14:20:40;1.20;;;0.40;;
13445;SDS011;6795;51.232;3.764;2023-04-24T14:23:09;1.58;;;0.30;;
13445;SDS011;6795;51.232;3.764;2023-04-24T14:25:38;3.08;;;0.40;;
13445;SDS011;6795;51.232;3.764;2023-04-24T14:28:06;2.15;;;0.30;;
13445;SDS011;6795;51.232;3.764;2023-04-24T14:30:35;2.08;;;0.30;;
13445;SDS011;6795;51.232;3.764;2023-04-24T14:33:03;3.20;;;0.30;;
13445;SDS011;6795;51.232;3.764;2023-04-24T14:35:34;3.13;;;0.50;;
13445;SDS011;6795;51.232;3.764;2023-04-24T14:38:03;2.45;;;0.50;;
13445;SDS011;6795;51.232;3.764;2023-04-24T14:40:33;1.05;;;0.30;;
13445;SDS011;6795;51.232;3.764;2023-04-24T14:43:21;1.02;;;0.40;;
13445;SDS011;6795;51.232;3.764;2023-04-24T14:45:49;1.20;;;0.30;;
13445;SDS011;6795;51.232;3.764;2023-04-24T14:48:18;0.65;;;0.40;;
13445;SDS011;6795;51.232;3.764;2023-04-24T14:50:46;1.35;;;0.70;;
13445;SDS011;6795;51.232;3.764;2023-04-24T14:53:15;1.40;;;0.50;;
13445;SDS011;6795;51.232;3.764;2023-04-24T14:55:45;2.35;;;0.60;;
13445;SDS011;6795;51.232;3.764;2023-04-24T14:58:14;2.83;;;0.50;;
13445;SDS011;6795;51.232;3.764;2023-04-24T15:00:42;0.55;;;0.30;;
13445;SDS011;6795;51.232;3.764;2023-04-24T15:03:10;1.80;;;0.50;;
13445;SDS011;6795;51.232;3.764;2023-04-24T15:05:39;5.43;;;0.70;;
13445;SDS011;6795;51.232;3.764;2023-04-24T15:08:08;4.45;;;1.30;;
13445;SDS011;6795;51.232;3.764;2023-04-24T15:10:37;2.30;;;0.50;;
13445;SDS011;6795;51.232;3.764;2023-04-24T15:13:07;3.30;;;0.88;;